createdAt,value
2022-09-16T00:00:29.527Z,0.90
2022-09-16T00:02:56.451Z,1.10
2022-09-16T00:05:23.740Z,0.70
2022-09-16T00:07:51.075Z,0.90
2022-09-16T00:10:18.304Z,0.93
2022-09-16T00:12:45.033Z,0.80
2022-09-16T00:15:11.928Z,1.00
2022-09-16T00:17:39.057Z,1.10
2022-09-16T00:20:07.537Z,0.83
2022-09-16T00:22:34.963Z,1.00
2022-09-16T00:25:01.732Z,1.00
2022-09-16T00:27:28.567Z,1.40
2022-09-16T00:29:55.345Z,1.30
2022-09-16T00:32:24.058Z,1.03
2022-09-16T00:34:51.466Z,0.90
2022-09-16T00:37:18.612Z,1.00
2022-09-16T00:39:48.369Z,0.87
2022-09-16T00:42:15.830Z,1.17
2022-09-16T00:44:57.774Z,1.03
2022-09-16T00:47:31.162Z,0.70
2022-09-16T00:50:06.232Z,0.90
2022-09-16T00:52:33.465Z,0.90
2022-09-16T00:55:05.860Z,1.03
2022-09-16T00:57:33.159Z,1.00
2022-09-16T01:00:00.500Z,1.10
2022-09-16T01:02:27.687Z,1.10
2022-09-16T01:05:00.663Z,1.00
2022-09-16T01:07:36.069Z,1.10
2022-09-16T01:10:02.968Z,1.03
2022-09-16T01:12:32.369Z,1.10
2022-09-16T01:15:00.745Z,1.57
2022-09-16T01:17:37.040Z,1.77
2022-09-16T01:20:37.672Z,1.53
2022-09-16T01:23:22.623Z,1.50
2022-09-16T01:26:14.665Z,1.37
2022-09-16T01:29:09.551Z,1.60
2022-09-16T01:31:39.304Z,1.57
2022-09-16T01:34:31.200Z,2.10
2022-09-16T01:37:06.748Z,1.60
2022-09-16T01:39:42.695Z,1.77
2022-09-16T01:42:35.744Z,1.70
2022-09-16T01:45:15.596Z,1.80
2022-09-16T01:47:57.673Z,2.17
2022-09-16T01:50:37.265Z,1.80
2022-09-16T01:53:17.982Z,1.83
2022-09-16T01:55:59.558Z,1.60
2022-09-16T01:58:39.550Z,1.60
2022-09-16T02:01:12.434Z,2.00
2022-09-16T02:03:42.799Z,1.87
2022-09-16T02:06:15.192Z,1.70
2022-09-16T02:09:08.110Z,1.63
2022-09-16T02:11:37.535Z,1.87
2022-09-16T02:14:10.411Z,2.00
2022-09-16T02:16:49.216Z,2.10
2022-09-16T02:19:26.758Z,1.80
2022-09-16T02:22:12.546Z,1.70
2022-09-16T02:24:41.531Z,1.87
2022-09-16T02:27:14.930Z,1.50
2022-09-16T02:29:46.520Z,1.93
2022-09-16T02:32:15.219Z,1.80
2022-09-16T02:34:45.713Z,1.73
2022-09-16T02:37:20.006Z,1.43
2022-09-16T02:39:50.666Z,1.40
2022-09-16T02:42:17.759Z,1.70
2022-09-16T02:44:46.403Z,1.43
2022-09-16T02:47:37.380Z,2.13
2022-09-16T02:50:22.204Z,1.80
2022-09-16T02:53:00.234Z,1.60
2022-09-16T02:55:56.421Z,1.83
2022-09-16T02:58:23.357Z,1.50
2022-09-16T03:00:53.879Z,1.17
2022-09-16T03:03:20.878Z,1.30
2022-09-16T03:06:14.110Z,1.23
2022-09-16T03:08:42.253Z,0.90
2022-09-16T03:11:19.413Z,0.97
2022-09-16T03:13:59.903Z,0.80
2022-09-16T03:16:50.748Z,1.20
2022-09-16T03:19:36.063Z,0.63
2022-09-16T03:22:05.787Z,0.57
2022-09-16T03:24:40.680Z,0.67
2022-09-16T03:27:31.944Z,0.57
2022-09-16T03:30:06.528Z,0.53
2022-09-16T03:32:43.142Z,0.70
2022-09-16T03:35:37.094Z,0.70
2022-09-16T03:38:05.903Z,0.50
2022-09-16T03:40:34.436Z,0.67
2022-09-16T03:43:09.588Z,0.47
2022-09-16T03:45:36.440Z,0.40
2022-09-16T03:48:03.329Z,0.53
2022-09-16T03:50:30.076Z,0.50
2022-09-16T03:52:56.844Z,0.47
2022-09-16T03:55:23.611Z,0.50
2022-09-16T03:57:50.394Z,0.50
2022-09-16T04:00:17.236Z,0.50
2022-09-16T04:02:44.055Z,0.53
2022-09-16T04:05:11.109Z,0.50
2022-09-16T04:07:38.127Z,0.53
2022-09-16T04:10:06.940Z,0.40
2022-09-16T04:12:34.079Z,0.67
2022-09-16T04:15:01.118Z,0.50
2022-09-16T04:17:31.145Z,0.57
2022-09-16T04:19:57.876Z,0.50
2022-09-16T04:22:24.696Z,0.50
2022-09-16T04:24:51.446Z,0.30
2022-09-16T04:27:19.523Z,0.43
2022-09-16T04:29:46.702Z,0.50
2022-09-16T04:32:13.560Z,0.40
2022-09-16T04:34:40.344Z,0.57
2022-09-16T04:37:07.340Z,0.30
2022-09-16T04:39:34.205Z,0.77
2022-09-16T04:42:01.138Z,0.77
2022-09-16T04:44:30.168Z,0.40
2022-09-16T04:46:56.972Z,0.30
2022-09-16T04:49:23.956Z,0.63
2022-09-16T04:51:52.235Z,0.40
2022-09-16T04:54:19.188Z,0.37
2022-09-16T04:56:46.804Z,0.30
2022-09-16T04:59:13.541Z,0.53
2022-09-16T05:01:40.777Z,0.43
2022-09-16T05:04:08.255Z,0.80
2022-09-16T05:06:38.587Z,0.40
2022-09-16T05:09:05.871Z,0.40
2022-09-16T05:11:34.769Z,0.47
2022-09-16T05:14:03.463Z,0.37
2022-09-16T05:16:30.876Z,0.30
2022-09-16T05:18:59.101Z,0.50
2022-09-16T05:21:28.180Z,0.50
2022-09-16T05:23:59.294Z,0.70
2022-09-16T05:26:27.945Z,0.60
2022-09-16T05:28:55.092Z,0.53
2022-09-16T05:31:23.156Z,0.40
2022-09-16T05:33:59.908Z,0.30
2022-09-16T05:36:28.577Z,0.30
2022-09-16T05:39:20.938Z,0.43
2022-09-16T05:41:42.462Z,0.40
2022-09-16T05:44:09.239Z,0.40
2022-09-16T05:46:36.648Z,0.40
2022-09-16T05:49:04.409Z,0.57
2022-09-16T05:51:31.309Z,0.57
2022-09-16T05:53:59.549Z,0.50
2022-09-16T05:56:28.993Z,0.60
2022-09-16T05:58:58.249Z,0.50
2022-09-16T06:01:28.426Z,1.23
2022-09-16T06:03:55.395Z,0.50
2022-09-16T06:06:36.093Z,0.40
2022-09-16T06:09:21.150Z,0.90
2022-09-16T06:11:50.299Z,0.70
2022-09-16T06:14:18.626Z,0.70
2022-09-16T06:16:46.349Z,0.67
2022-09-16T06:19:17.780Z,0.50
2022-09-16T06:21:45.492Z,1.07
2022-09-16T06:24:14.729Z,0.90
2022-09-16T06:26:43.879Z,0.80
2022-09-16T06:29:11.486Z,2.30
2022-09-16T06:31:39.022Z,0.70
2022-09-16T06:34:07.124Z,0.90
2022-09-16T06:36:42.804Z,1.17
2022-09-16T06:39:15.746Z,0.80
2022-09-16T06:41:42.804Z,0.60
2022-09-16T06:44:10.141Z,0.90
2022-09-16T06:46:37.323Z,0.87
2022-09-16T06:49:06.112Z,0.60
2022-09-16T06:51:34.815Z,0.70
2022-09-16T06:54:06.619Z,0.70
2022-09-16T06:56:36.255Z,0.80
2022-09-16T06:59:03.677Z,1.00
2022-09-16T07:01:31.850Z,0.77
2022-09-16T07:04:06.505Z,0.93
2022-09-16T07:07:04.781Z,0.70
2022-09-16T07:09:20.700Z,1.00
2022-09-16T07:11:47.423Z,0.80
2022-09-16T07:14:14.282Z,1.00
2022-09-16T07:16:41.182Z,0.87
2022-09-16T07:19:08.246Z,1.00
2022-09-16T07:21:35.778Z,0.90
2022-09-16T07:24:03.649Z,0.93
2022-09-16T07:26:32.958Z,1.03
2022-09-16T07:29:02.110Z,0.90
2022-09-16T07:31:35.037Z,0.97
2022-09-16T07:34:04.528Z,0.70
2022-09-16T07:36:40.718Z,0.90
2022-09-16T07:39:08.140Z,0.83
2022-09-16T07:41:40.572Z,1.37
2022-09-16T07:44:08.523Z,0.53
2022-09-16T07:46:36.784Z,0.97
2022-09-16T07:49:06.509Z,1.20
2022-09-16T07:51:34.277Z,1.03
2022-09-16T07:54:04.723Z,0.87
2022-09-16T07:56:34.566Z,0.80
2022-09-16T07:59:03.185Z,1.27
2022-09-16T08:01:31.343Z,1.33
2022-09-16T08:03:59.401Z,0.60
2022-09-16T08:06:28.724Z,0.70
2022-09-16T08:09:05.880Z,0.77
2022-09-16T08:11:42.340Z,1.00
2022-09-16T08:14:09.113Z,0.80
2022-09-16T08:16:35.908Z,0.80
2022-09-16T08:19:02.691Z,0.73
2022-09-16T08:21:29.727Z,1.60
2022-09-16T08:23:57.359Z,0.77
2022-09-16T08:26:24.849Z,0.77
2022-09-16T08:29:07.994Z,0.97
2022-09-16T08:31:35.747Z,0.73
2022-09-16T08:34:02.732Z,0.93
2022-09-16T08:36:29.447Z,0.80
2022-09-16T08:38:56.861Z,2.37
2022-09-16T08:41:49.156Z,0.63
2022-09-16T08:44:56.811Z,0.50
2022-09-16T08:47:50.605Z,0.73
2022-09-16T08:50:29.162Z,0.93
2022-09-16T08:52:59.926Z,0.83
2022-09-16T08:55:34.417Z,0.97
2022-09-16T08:58:26.585Z,0.60
2022-09-16T09:00:58.274Z,0.50
2022-09-16T09:03:38.944Z,0.70
2022-09-16T09:06:41.057Z,1.17
2022-09-16T09:09:36.263Z,0.63
2022-09-16T09:12:09.499Z,0.50
2022-09-16T09:14:51.756Z,0.53
2022-09-16T09:17:37.253Z,0.73
2022-09-16T09:20:43.723Z,0.07
2022-09-16T09:23:24.627Z,0.10
2022-09-16T09:26:39.255Z,0.30
2022-09-16T09:29:24.837Z,0.30
2022-09-16T09:32:15.690Z,0.30
2022-09-16T09:35:04.605Z,0.30
2022-09-16T09:37:56.725Z,0.53
2022-09-16T09:40:39.173Z,0.50
2022-09-16T09:43:30.903Z,0.50
2022-09-16T09:46:23.433Z,0.80
2022-09-16T09:49:09.162Z,0.80
2022-09-16T09:51:45.487Z,0.70
2022-09-16T09:54:31.895Z,0.40
2022-09-16T09:57:10.275Z,0.57
2022-09-16T10:00:02.215Z,0.43
2022-09-16T10:02:29.253Z,0.50
2022-09-16T10:04:56.370Z,0.40
2022-09-16T10:07:25.663Z,0.63
2022-09-16T10:10:17.519Z,0.40
2022-09-16T10:12:44.675Z,0.30
2022-09-16T10:15:28.028Z,0.50
2022-09-16T10:17:56.429Z,0.40
2022-09-16T10:20:42.480Z,0.50
2022-09-16T10:23:23.555Z,0.30
2022-09-16T10:26:09.837Z,0.50
2022-09-16T10:28:36.644Z,0.53
2022-09-16T10:31:06.478Z,0.70
2022-09-16T10:33:42.495Z,0.70
2022-09-16T10:36:11.591Z,0.60
2022-09-16T10:39:04.856Z,0.93
2022-09-16T10:41:47.636Z,0.80
2022-09-16T10:44:21.354Z,0.60
2022-09-16T10:47:00.743Z,0.77
2022-09-16T10:50:02.268Z,0.63
2022-09-16T10:52:31.725Z,0.90
2022-09-16T10:55:21.134Z,0.60
2022-09-16T10:57:48.244Z,0.70
2022-09-16T11:00:23.540Z,0.70
2022-09-16T11:03:23.655Z,0.60
2022-09-16T11:05:56.869Z,0.70
2022-09-16T11:08:53.077Z,0.53
2022-09-16T11:11:25.901Z,0.80
2022-09-16T11:14:22.395Z,0.40
2022-09-16T11:17:01.082Z,0.60
2022-09-16T11:19:46.914Z,0.43
2022-09-16T11:22:16.640Z,0.60
2022-09-16T11:25:17.127Z,0.43
2022-09-16T11:27:55.438Z,0.70
2022-09-16T11:30:23.015Z,0.70
2022-09-16T11:33:22.310Z,0.73
2022-09-16T11:36:26.448Z,0.30
2022-09-16T11:39:16.261Z,0.23
2022-09-16T11:41:49.792Z,0.20
2022-09-16T11:44:41.600Z,0.20
2022-09-16T11:47:40.906Z,0.33
2022-09-16T11:50:30.134Z,0.20
2022-09-16T11:53:42.618Z,0.30
2022-09-16T11:56:25.714Z,0.47
2022-09-16T11:59:01.179Z,0.30
2022-09-16T12:01:32.424Z,0.17
2022-09-16T12:04:12.205Z,0.40
2022-09-16T12:07:15.029Z,0.30
2022-09-16T12:10:20.250Z,0.30
2022-09-16T12:12:53.238Z,0.47
2022-09-16T12:15:29.224Z,0.40
2022-09-16T12:18:01.244Z,0.70
2022-09-16T12:20:30.173Z,0.43
2022-09-16T12:23:25.494Z,0.60
2022-09-16T12:26:12.726Z,0.50
2022-09-16T12:28:54.820Z,0.57
2022-09-16T12:31:35.168Z,0.60
2022-09-16T12:34:26.845Z,0.70
2022-09-16T12:37:15.044Z,0.53
2022-09-16T12:39:42.898Z,1.03
2022-09-16T12:42:37.822Z,0.50
2022-09-16T12:45:16.100Z,0.67
2022-09-16T12:48:21.195Z,0.90
2022-09-16T12:50:53.453Z,0.50
2022-09-16T12:53:41.593Z,0.77
2022-09-16T12:56:17.095Z,0.30
2022-09-16T12:59:16.712Z,1.40
2022-09-16T13:01:59.542Z,0.97
2022-09-16T13:04:38.883Z,0.30
2022-09-16T13:07:06.483Z,0.30
2022-09-16T13:09:38.954Z,0.47
2022-09-16T13:12:39.161Z,0.30
2022-09-16T13:15:06.424Z,0.27
2022-09-16T13:17:40.563Z,0.30
2022-09-16T13:20:39.425Z,0.40
2022-09-16T13:23:14.618Z,0.57
2022-09-16T13:26:03.423Z,0.50
2022-09-16T13:28:33.474Z,0.40
2022-09-16T13:31:12.738Z,0.20
2022-09-16T13:33:41.686Z,0.40
2022-09-16T13:36:11.518Z,0.40
2022-09-16T13:38:41.341Z,0.60
2022-09-16T13:41:11.503Z,0.43
2022-09-16T13:43:51.574Z,0.40
2022-09-16T13:46:32.531Z,0.40
2022-09-16T13:49:12.939Z,0.50
2022-09-16T13:51:46.184Z,0.70
2022-09-16T13:54:21.950Z,0.80
2022-09-16T13:57:13.798Z,0.60
2022-09-16T14:00:02.131Z,0.47
2022-09-16T14:02:31.682Z,0.50
2022-09-16T14:05:28.682Z,0.50
2022-09-16T14:08:31.163Z,0.50
2022-09-16T14:11:02.052Z,0.67
2022-09-16T14:13:45.445Z,0.70
2022-09-16T14:16:20.995Z,0.60
2022-09-16T14:19:03.380Z,0.80
2022-09-16T14:21:30.607Z,0.57
2022-09-16T14:24:20.770Z,0.67
2022-09-16T14:26:52.505Z,0.60
2022-09-16T14:29:19.921Z,0.90
2022-09-16T14:31:48.237Z,1.20
2022-09-16T14:34:36.423Z,1.20
2022-09-16T14:37:05.215Z,0.90
2022-09-16T14:39:34.553Z,0.90
2022-09-16T14:42:05.781Z,0.70
2022-09-16T14:44:40.724Z,1.10
2022-09-16T14:47:39.733Z,0.77
2022-09-16T14:50:18.420Z,1.47
2022-09-16T14:52:54.776Z,1.27
2022-09-16T14:55:24.564Z,0.70
2022-09-16T14:57:51.810Z,0.87
2022-09-16T15:00:20.004Z,0.73
2022-09-16T15:02:55.649Z,0.90
2022-09-16T15:05:59.737Z,1.00
2022-09-16T15:08:37.245Z,1.00
2022-09-16T15:11:36.222Z,0.90
2022-09-16T15:14:07.468Z,1.03
2022-09-16T15:17:00.605Z,1.20
2022-09-16T15:19:39.886Z,0.80
2022-09-16T15:22:11.100Z,0.90
2022-09-16T15:24:41.215Z,1.20
2022-09-16T15:27:09.219Z,1.23
2022-09-16T15:29:46.606Z,1.20
2022-09-16T15:32:22.156Z,0.73
2022-09-16T15:35:00.568Z,1.50
2022-09-16T15:37:32.395Z,0.83
2022-09-16T15:40:20.815Z,0.70
2022-09-16T15:43:20.670Z,0.80
2022-09-16T15:46:16.049Z,1.03
2022-09-16T15:48:46.964Z,0.90
2022-09-16T15:51:26.950Z,0.80
2022-09-16T15:54:00.313Z,0.70
2022-09-16T15:56:44.542Z,0.97
2022-09-16T15:59:46.489Z,0.50
2022-09-16T16:02:43.255Z,1.00
2022-09-16T16:05:17.243Z,0.70
2022-09-16T16:07:49.720Z,0.87
2022-09-16T16:10:17.047Z,0.90
2022-09-16T16:12:49.004Z,0.83
2022-09-16T16:15:18.649Z,0.70
2022-09-16T16:17:47.349Z,0.70
2022-09-16T16:20:15.311Z,0.80
2022-09-16T16:22:44.822Z,0.70
2022-09-16T16:25:13.547Z,0.50
2022-09-16T16:27:40.641Z,0.70
2022-09-16T16:30:08.907Z,0.80
2022-09-16T16:32:38.546Z,0.80
2022-09-16T16:35:06.389Z,0.80
2022-09-16T16:37:46.001Z,0.63
2022-09-16T16:40:14.869Z,0.90
2022-09-16T16:42:43.597Z,0.50
2022-09-16T16:45:13.515Z,1.10
2022-09-16T16:47:40.556Z,0.60
2022-09-16T16:50:07.548Z,0.70
2022-09-16T16:52:34.304Z,0.93
2022-09-16T16:55:01.117Z,0.90
2022-09-16T16:57:28.193Z,0.90
2022-09-16T16:59:54.943Z,1.17
2022-09-16T17:02:21.713Z,0.67
2022-09-16T17:04:48.847Z,0.70
2022-09-16T17:07:30.899Z,0.70
2022-09-16T17:09:58.530Z,0.90
2022-09-16T17:12:26.853Z,0.90
2022-09-16T17:14:53.661Z,0.97
2022-09-16T17:17:20.402Z,0.73
2022-09-16T17:19:47.241Z,0.90
2022-09-16T17:22:14.033Z,0.97
2022-09-16T17:24:40.884Z,0.73
2022-09-16T17:27:07.945Z,0.50
2022-09-16T17:29:35.006Z,0.73
2022-09-16T17:32:03.199Z,0.70
2022-09-16T17:34:31.166Z,0.70
2022-09-16T17:36:58.508Z,0.90
2022-09-16T17:39:26.012Z,1.20
2022-09-16T17:41:54.515Z,0.80
2022-09-16T17:44:21.298Z,0.83
2022-09-16T17:46:48.360Z,0.87
2022-09-16T17:49:17.000Z,0.63
2022-09-16T17:51:43.775Z,0.60
2022-09-16T17:54:11.501Z,0.53
2022-09-16T17:56:38.967Z,1.00
2022-09-16T17:59:06.784Z,0.90
2022-09-16T18:01:33.609Z,1.10
2022-09-16T18:04:01.830Z,0.80
2022-09-16T18:06:31.801Z,0.93
2022-09-16T18:09:04.335Z,0.80
2022-09-16T18:11:31.463Z,0.97
2022-09-16T18:14:00.829Z,1.07
2022-09-16T18:16:29.637Z,0.90
2022-09-16T18:18:59.240Z,0.70
2022-09-16T18:21:26.690Z,1.20
2022-09-16T18:24:02.397Z,0.80
2022-09-16T18:26:30.153Z,0.80
2022-09-16T18:29:09.641Z,0.70
2022-09-16T18:31:37.520Z,0.70
2022-09-16T18:34:04.926Z,0.93
2022-09-16T18:36:33.378Z,0.73
2022-09-16T18:39:00.342Z,1.27
2022-09-16T18:41:30.983Z,1.10
2022-09-16T18:44:03.471Z,1.30
2022-09-16T18:46:35.526Z,0.90
2022-09-16T18:49:03.246Z,1.03
2022-09-16T18:51:36.268Z,0.90
2022-09-16T18:54:07.927Z,1.13
2022-09-16T18:56:36.904Z,1.00
2022-09-16T18:59:21.410Z,0.83
2022-09-16T19:01:50.255Z,1.20
2022-09-16T19:04:19.941Z,1.40
2022-09-16T19:06:48.997Z,1.33
2022-09-16T19:09:18.333Z,0.93
2022-09-16T19:11:45.425Z,1.10
2022-09-16T19:14:13.920Z,1.17
2022-09-16T19:16:45.367Z,1.00
2022-09-16T19:19:14.572Z,1.30
2022-09-16T19:21:42.545Z,1.40
2022-09-16T19:24:15.669Z,1.07
2022-09-16T19:26:43.682Z,0.87
2022-09-16T19:29:12.475Z,1.17
2022-09-16T19:31:41.471Z,1.10
2022-09-16T19:34:10.511Z,0.80
2022-09-16T19:36:38.192Z,1.03
2022-09-16T19:39:06.708Z,1.00
2022-09-16T19:41:35.944Z,1.10
2022-09-16T19:44:05.683Z,0.93
2022-09-16T19:46:37.622Z,0.70
2022-09-16T19:49:05.803Z,1.00
2022-09-16T19:51:33.267Z,0.83
2022-09-16T19:54:01.332Z,1.20
2022-09-16T19:56:32.718Z,0.80
2022-09-16T19:59:01.575Z,1.97
2022-09-16T20:01:31.937Z,0.90
2022-09-16T20:03:59.698Z,1.40
2022-09-16T20:06:30.789Z,1.33
2022-09-16T20:08:59.888Z,1.43
2022-09-16T20:11:29.498Z,1.40
2022-09-16T20:14:02.208Z,1.30
2022-09-16T20:16:34.368Z,1.90
2022-09-16T20:19:01.941Z,1.70
2022-09-16T20:21:29.936Z,1.50
2022-09-16T20:23:57.209Z,1.30
2022-09-16T20:26:24.155Z,1.13
2022-09-16T20:28:52.894Z,1.10
2022-09-16T20:31:24.890Z,1.07
2022-09-16T20:33:52.565Z,1.00
2022-09-16T20:36:21.949Z,1.20
2022-09-16T20:38:50.143Z,1.07
2022-09-16T20:41:26.240Z,0.93
2022-09-16T20:43:53.469Z,1.20
2022-09-16T20:46:28.139Z,1.00
2022-09-16T20:48:56.251Z,1.07
2022-09-16T20:51:25.965Z,1.07
2022-09-16T20:53:55.051Z,1.00
2022-09-16T20:56:22.272Z,0.97
2022-09-16T20:58:49.563Z,1.00
2022-09-16T21:01:20.697Z,1.27
2022-09-16T21:03:51.988Z,1.20
2022-09-16T21:06:19.382Z,1.87
2022-09-16T21:08:46.344Z,1.07
2022-09-16T21:11:16.174Z,1.60
2022-09-16T21:13:45.077Z,0.80
2022-09-16T21:16:15.834Z,1.10
2022-09-16T21:18:43.302Z,0.93
2022-09-16T21:21:18.188Z,1.07
2022-09-16T21:23:49.357Z,1.13
2022-09-16T21:26:21.597Z,1.13
2022-09-16T21:29:03.895Z,1.13
2022-09-16T21:31:33.504Z,1.40
2022-09-16T21:34:02.422Z,1.20
2022-09-16T21:36:29.862Z,1.13
2022-09-16T21:38:57.582Z,1.20
2022-09-16T21:41:25.288Z,0.97
2022-09-16T21:43:55.695Z,1.03
2022-09-16T21:46:27.216Z,1.33
2022-09-16T21:48:58.409Z,1.63
2022-09-16T21:51:25.224Z,1.37
2022-09-16T21:53:52.163Z,1.33
2022-09-16T21:56:23.395Z,2.43
2022-09-16T21:58:54.273Z,2.40
2022-09-16T22:01:23.575Z,1.17
2022-09-16T22:04:00.536Z,1.57
2022-09-16T22:06:28.083Z,1.30
2022-09-16T22:08:57.242Z,1.43
2022-09-16T22:11:26.077Z,1.43
2022-09-16T22:13:56.678Z,1.43
2022-09-16T22:16:28.811Z,1.63
2022-09-16T22:19:04.244Z,1.63
2022-09-16T22:21:34.120Z,1.37
2022-09-16T22:24:02.140Z,1.30
2022-09-16T22:26:29.922Z,1.93
2022-09-16T22:28:57.192Z,1.90
2022-09-16T22:31:26.402Z,1.17
2022-09-16T22:33:55.160Z,1.33
2022-09-16T22:36:26.113Z,1.37
2022-09-16T22:38:55.084Z,1.70
2022-09-16T22:41:23.193Z,1.90
2022-09-16T22:43:51.475Z,1.60
2022-09-16T22:46:27.593Z,1.30
2022-09-16T22:48:58.519Z,1.83
2022-09-16T22:51:26.468Z,1.80
2022-09-16T22:53:54.197Z,1.50
2022-09-16T22:56:28.366Z,1.30
2022-09-16T22:58:57.155Z,1.43
2022-09-16T23:01:27.232Z,1.23
2022-09-16T23:03:56.425Z,1.60
2022-09-16T23:06:27.151Z,1.33
2022-09-16T23:08:54.493Z,1.40
2022-09-16T23:11:24.021Z,1.50
2022-09-16T23:13:52.880Z,1.80
2022-09-16T23:16:26.981Z,1.60
2022-09-16T23:18:56.255Z,1.80
2022-09-16T23:21:24.017Z,1.37
2022-09-16T23:23:53.396Z,1.33
2022-09-16T23:26:26.346Z,1.17
2022-09-16T23:28:55.041Z,1.63
2022-09-16T23:31:24.431Z,1.53
2022-09-16T23:33:52.588Z,1.50
2022-09-16T23:36:20.282Z,1.53
2022-09-16T23:38:47.414Z,1.70
2022-09-16T23:41:20.659Z,1.13
2022-09-16T23:43:49.204Z,1.30
2022-09-16T23:46:19.187Z,1.53
2022-09-16T23:48:46.863Z,1.67
2022-09-16T23:51:14.291Z,1.30
2022-09-16T23:53:42.492Z,1.30
2022-09-16T23:56:11.661Z,1.80
2022-09-16T23:58:39.848Z,1.80
